Time;durP1;ratioP1;P1;durP2;ratioP2;P2;SDS_P1;SDS_P2;PMS_P1;PMS_P2;Temp;Humidity;BMP_temperature;BMP_pressure;BME280_temperature;BME280_humidity;BME280_pressure;Samples;Min_cycle;Max_cycle;Signal;HPM_P1;HPM_P2
2021/11/18 00:00:41;;;;;;;1.98;1.75;;;;;;;;;;4904888;28;81398;-39
2021/11/18 00:03:09;;;;;;;2.38;1.95;;;;;;;;;;4905719;28;81829;-42
2021/11/18 00:05:36;;;;;;;1.42;1.30;;;;;;;;;;4904674;28;81095;-41
2021/11/18 00:08:04;;;;;;;1.40;1.30;;;;;;;;;;4904864;28;82633;-42
2021/11/18 00:10:34;;;;;;;1.42;1.33;;;;;;;;;;4904111;28;81757;-41
2021/11/18 00:13:03;;;;;;;2.38;1.50;;;;;;;;;;4904781;28;81790;-42
2021/11/18 00:15:30;;;;;;;2.17;1.98;;;;;;;;;;4907133;28;81356;-41
2021/11/18 00:17:59;;;;;;;1.77;1.50;;;;;;;;;;4905534;28;80710;-43
2021/11/18 00:20:27;;;;;;;1.90;1.50;;;;;;;;;;4905259;28;82629;-42
2021/11/18 00:22:54;;;;;;;1.30;1.20;;;;;;;;;;4904722;28;81571;-41
2021/11/18 00:25:21;;;;;;;2.33;1.73;;;;;;;;;;4904863;28;82005;-41
2021/11/18 00:27:48;;;;;;;1.48;1.30;;;;;;;;;;4904852;28;82434;-42
2021/11/18 00:30:15;;;;;;;1.65;1.23;;;;;;;;;;4904854;28;80513;-41
2021/11/18 00:32:42;;;;;;;1.77;1.40;;;;;;;;;;4904573;28;80512;-41
2021/11/18 00:35:11;;;;;;;1.50;1.40;;;;;;;;;;4904090;28;80466;-41
2021/11/18 00:37:37;;;;;;;1.58;1.48;;;;;;;;;;4905292;28;81877;-42
2021/11/18 00:40:05;;;;;;;1.70;1.60;;;;;;;;;;4903420;28;83149;-42
2021/11/18 00:42:31;;;;;;;1.30;1.20;;;;;;;;;;4904676;28;80571;-41
2021/11/18 00:44:59;;;;;;;1.55;1.45;;;;;;;;;;4903612;28;82880;-41
2021/11/18 00:47:26;;;;;;;1.40;1.30;;;;;;;;;;4904405;28;81976;-41
2021/11/18 00:49:53;;;;;;;1.42;1.33;;;;;;;;;;4903380;28;82670;-42
2021/11/18 00:52:20;;;;;;;2.58;1.55;;;;;;;;;;4902242;28;85342;-41
2021/11/18 00:54:47;;;;;;;1.10;1.00;;;;;;;;;;4902537;28;83136;-41
2021/11/18 00:57:14;;;;;;;1.45;1.35;;;;;;;;;;4905093;28;84396;-41
2021/11/18 00:59:46;;;;;;;2.97;1.30;;;;;;;;;;4901457;28;81917;-41
2021/11/18 01:02:15;;;;;;;1.70;1.60;;;;;;;;;;4901940;28;83444;-42
2021/11/18 01:04:44;;;;;;;1.65;1.30;;;;;;;;;;4901570;28;83919;-43
2021/11/18 01:07:10;;;;;;;1.52;1.42;;;;;;;;;;4903404;28;81844;-42
2021/11/18 01:09:37;;;;;;;1.60;1.25;;;;;;;;;;4902495;28;83647;-42
2021/11/18 01:12:05;;;;;;;1.25;1.13;;;;;;;;;;4903552;28;81807;-42
2021/11/18 01:14:33;;;;;;;1.10;1.00;;;;;;;;;;4902178;28;83893;-42
2021/11/18 01:17:01;;;;;;;1.10;1.10;;;;;;;;;;4901635;28;83429;-42
2021/11/18 01:19:28;;;;;;;1.15;1.05;;;;;;;;;;4903605;28;86229;-41
2021/11/18 01:21:58;;;;;;;1.30;1.20;;;;;;;;;;4901506;28;84214;-42
2021/11/18 01:24:28;;;;;;;1.73;1.40;;;;;;;;;;4902954;28;82530;-41
2021/11/18 01:27:15;;;;;;;1.65;1.40;;;;;;;;;;4915535;28;82362;-42
2021/11/18 01:29:42;;;;;;;1.05;0.93;;;;;;;;;;4904608;28;85199;-42
2021/11/18 01:32:09;;;;;;;1.23;1.13;;;;;;;;;;4904102;28;85021;-41
2021/11/18 01:34:39;;;;;;;1.67;1.52;;;;;;;;;;4904674;28;82727;-41
2021/11/18 01:37:06;;;;;;;1.30;1.20;;;;;;;;;;4904862;28;85086;-41
2021/11/18 01:39:34;;;;;;;1.25;1.15;;;;;;;;;;4904464;28;85182;-41
2021/11/18 01:42:02;;;;;;;1.13;1.00;;;;;;;;;;4907431;28;83919;-42
2021/11/18 01:44:31;;;;;;;1.40;1.30;;;;;;;;;;4905063;28;84210;-41
2021/11/18 01:47:00;;;;;;;3.25;1.13;;;;;;;;;;4904689;28;83534;-42
2021/11/18 01:49:27;;;;;;;1.10;1.10;;;;;;;;;;4905384;28;82316;-41
2021/11/18 01:51:56;;;;;;;1.35;1.25;;;;;;;;;;4904809;28;85167;-41
2021/11/18 01:54:25;;;;;;;1.10;1.00;;;;;;;;;;4904306;28;84402;-42
2021/11/18 01:56:52;;;;;;;1.30;1.20;;;;;;;;;;4889117;28;83842;-42
2021/11/18 01:59:23;;;;;;;1.00;1.00;;;;;;;;;;4903654;28;84619;-41
2021/11/18 02:02:02;;;;;;;1.30;1.20;;;;;;;;;;4904558;28;82535;-41
2021/11/18 02:05:20;;;;;;;1.77;1.48;;;;;;;;;;4908221;28;81904;-41
2021/11/18 02:07:50;;;;;;;1.05;1.02;;;;;;;;;;4903719;28;84028;-39
2021/11/18 02:10:25;;;;;;;1.20;1.10;;;;;;;;;;4901075;28;84894;-41
2021/11/18 02:12:52;;;;;;;1.45;1.30;;;;;;;;;;4891425;28;84161;-40
2021/11/18 02:15:28;;;;;;;1.50;1.40;;;;;;;;;;4891228;28;82810;-37
2021/11/18 02:17:58;;;;;;;0.77;0.77;;;;;;;;;;4885413;28;84282;-41
2021/11/18 02:20:30;;;;;;;0.90;0.90;;;;;;;;;;4886611;28;82654;-41
2021/11/18 02:22:57;;;;;;;1.27;1.17;;;;;;;;;;4885253;28;83856;-41
2021/11/18 02:25:26;;;;;;;1.83;1.65;;;;;;;;;;4885427;28;84787;-41
2021/11/18 02:27:53;;;;;;;1.30;1.20;;;;;;;;;;4887587;28;83184;-41
2021/11/18 02:30:33;;;;;;;1.63;1.10;;;;;;;;;;4885173;28;83746;-42
2021/11/18 02:33:00;;;;;;;1.02;1.02;;;;;;;;;;4884558;28;83748;-41
2021/11/18 02:35:29;;;;;;;0.90;0.90;;;;;;;;;;4884429;28;82791;-41
2021/11/18 02:37:57;;;;;;;1.13;1.08;;;;;;;;;;4885499;28;84306;-41
2021/11/18 02:40:25;;;;;;;1.20;1.10;;;;;;;;;;4885255;28;84580;-42
2021/11/18 02:42:53;;;;;;;1.38;1.30;;;;;;;;;;4884533;28;81930;-42
2021/11/18 02:45:21;;;;;;;0.95;0.95;;;;;;;;;;4884927;28;84996;-41
2021/11/18 02:47:48;;;;;;;1.20;1.10;;;;;;;;;;4886212;28;82544;-41
2021/11/18 02:50:17;;;;;;;0.73;0.73;;;;;;;;;;4887236;28;81983;-41
2021/11/18 02:52:47;;;;;;;1.33;1.23;;;;;;;;;;4885644;28;84243;-42
2021/11/18 02:55:16;;;;;;;1.08;0.98;;;;;;;;;;4884203;28;84150;-42
2021/11/18 02:57:43;;;;;;;1.65;1.55;;;;;;;;;;4884748;28;83531;-42
2021/11/18 03:00:12;;;;;;;1.38;1.27;;;;;;;;;;4883831;28;84834;-41
2021/11/18 03:02:39;;;;;;;1.30;1.10;;;;;;;;;;4884625;28;83975;-42
2021/11/18 03:05:06;;;;;;;1.63;1.50;;;;;;;;;;4884370;28;84539;-42
2021/11/18 03:07:33;;;;;;;1.23;1.13;;;;;;;;;;4884404;28;83755;-42
2021/11/18 03:10:01;;;;;;;1.30;1.20;;;;;;;;;;4887282;28;83197;-41
2021/11/18 03:12:27;;;;;;;1.70;1.20;;;;;;;;;;4884528;28;85005;-41
2021/11/18 03:14:54;;;;;;;0.85;0.85;;;;;;;;;;4884345;28;83669;-41
2021/11/18 03:17:22;;;;;;;1.55;1.45;;;;;;;;;;4884196;28;84953;-41
2021/11/18 03:20:12;;;;;;;1.60;1.50;;;;;;;;;;4884425;28;85077;-41
2021/11/18 03:22:39;;;;;;;1.13;1.02;;;;;;;;;;4883771;28;84042;-42
2021/11/18 03:25:07;;;;;;;1.27;1.15;;;;;;;;;;4898449;28;85365;-41
2021/11/18 03:27:35;;;;;;;1.50;1.30;;;;;;;;;;4904050;28;82563;-38
2021/11/18 03:30:05;;;;;;;1.65;1.55;;;;;;;;;;4903169;28;84095;-43
2021/11/18 03:32:37;;;;;;;1.77;1.23;;;;;;;;;;4905605;28;84012;-41
2021/11/18 03:35:04;;;;;;;2.13;1.73;;;;;;;;;;4884463;28;84231;-41
2021/11/18 03:37:31;;;;;;;1.90;1.75;;;;;;;;;;4883560;28;84816;-41
2021/11/18 03:39:58;;;;;;;2.38;1.67;;;;;;;;;;4884222;28;84963;-41
2021/11/18 03:42:25;;;;;;;2.60;2.05;;;;;;;;;;4885527;28;81549;-42
2021/11/18 03:44:52;;;;;;;2.08;1.80;;;;;;;;;;4884175;28;84178;-41
2021/11/18 03:47:21;;;;;;;2.47;1.60;;;;;;;;;;4883251;28;84958;-40
2021/11/18 03:49:48;;;;;;;1.95;1.70;;;;;;;;;;4882983;28;84373;-41
2021/11/18 03:52:16;;;;;;;1.70;1.60;;;;;;;;;;4883789;28;85849;-40
2021/11/18 03:54:43;;;;;;;1.55;1.40;;;;;;;;;;4893116;28;85315;-41
2021/11/18 03:57:13;;;;;;;1.20;1.10;;;;;;;;;;4902557;28;84774;-41
2021/11/18 03:59:46;;;;;;;1.33;1.20;;;;;;;;;;4902633;28;84965;-41
2021/11/18 04:02:18;;;;;;;1.85;1.45;;;;;;;;;;4902262;28;84321;-40
2021/11/18 04:04:49;;;;;;;2.30;1.25;;;;;;;;;;4902621;28;85168;-40
2021/11/18 04:07:16;;;;;;;1.98;1.67;;;;;;;;;;4902629;28;84555;-41
2021/11/18 04:09:45;;;;;;;1.50;1.40;;;;;;;;;;4902462;28;81871;-40
2021/11/18 04:12:13;;;;;;;1.67;1.40;;;;;;;;;;4902809;28;83364;-40
2021/11/18 04:14:40;;;;;;;2.40;1.50;;;;;;;;;;4901809;28;85941;-41
2021/11/18 04:17:10;;;;;;;1.75;1.58;;;;;;;;;;4904873;28;84350;-40
2021/11/18 04:19:37;;;;;;;2.00;1.50;;;;;;;;;;4902860;28;84917;-40
2021/11/18 04:22:06;;;;;;;2.47;1.90;;;;;;;;;;4903747;28;82482;-40
2021/11/18 04:24:37;;;;;;;2.08;1.50;;;;;;;;;;4897229;28;84818;-40
2021/11/18 04:27:04;;;;;;;2.45;1.90;;;;;;;;;;4902094;28;84029;-39
2021/11/18 04:29:31;;;;;;;2.45;1.50;;;;;;;;;;4903477;28;82875;-40
2021/11/18 04:32:04;;;;;;;1.40;1.30;;;;;;;;;;4884292;28;82459;-40
2021/11/18 04:34:31;;;;;;;3.10;2.30;;;;;;;;;;4883197;28;83876;-40
2021/11/18 04:36:58;;;;;;;2.45;1.75;;;;;;;;;;4882724;28;84058;-38
2021/11/18 04:39:25;;;;;;;1.48;1.38;;;;;;;;;;4885155;28;84632;-40
2021/11/18 04:41:52;;;;;;;1.42;1.33;;;;;;;;;;4884471;28;81885;-41
2021/11/18 04:44:20;;;;;;;1.67;1.33;;;;;;;;;;4892180;28;83429;-40
2021/11/18 04:46:53;;;;;;;1.60;1.50;;;;;;;;;;4896144;28;83362;-41
2021/11/18 04:49:20;;;;;;;1.20;1.10;;;;;;;;;;4893901;28;82496;-40
2021/11/18 04:51:47;;;;;;;1.42;1.17;;;;;;;;;;4895149;28;84780;-40
2021/11/18 04:54:15;;;;;;;1.85;1.42;;;;;;;;;;4884229;28;83827;-39
2021/11/18 04:56:41;;;;;;;1.40;1.23;;;;;;;;;;4883695;28;84107;-41
2021/11/18 04:59:08;;;;;;;2.45;1.60;;;;;;;;;;4885054;28;82697;-40
2021/11/18 05:01:35;;;;;;;1.60;1.50;;;;;;;;;;4889807;28;83326;-39
2021/11/18 05:04:04;;;;;;;2.97;2.08;;;;;;;;;;4885314;28;83443;-38
2021/11/18 05:06:31;;;;;;;2.35;1.60;;;;;;;;;;4885546;28;84251;-37
2021/11/18 05:09:00;;;;;;;1.60;1.50;;;;;;;;;;4885784;28;83677;-39
2021/11/18 05:11:28;;;;;;;1.40;1.30;;;;;;;;;;4885451;28;84595;-40
2021/11/18 05:13:55;;;;;;;1.20;1.10;;;;;;;;;;4886024;28;85145;-40
2021/11/18 05:16:24;;;;;;;1.92;1.55;;;;;;;;;;4885589;28;83737;-40
2021/11/18 05:18:51;;;;;;;1.95;1.50;;;;;;;;;;4887530;28;82223;-40
2021/11/18 05:21:20;;;;;;;1.65;1.55;;;;;;;;;;4907620;28;84016;-36
2021/11/18 05:23:48;;;;;;;1.45;1.20;;;;;;;;;;4904414;28;83934;-40
2021/11/18 05:26:16;;;;;;;1.52;1.42;;;;;;;;;;4898281;28;83577;-40
2021/11/18 05:28:43;;;;;;;1.70;1.60;;;;;;;;;;4886185;28;82759;-38
2021/11/18 05:31:12;;;;;;;1.10;1.00;;;;;;;;;;4885772;28;85427;-40
2021/11/18 05:33:46;;;;;;;1.35;1.25;;;;;;;;;;4885253;28;84615;-40
2021/11/18 05:36:16;;;;;;;1.80;1.65;;;;;;;;;;4885700;28;81951;-39
2021/11/18 05:38:45;;;;;;;2.47;1.40;;;;;;;;;;4884982;28;84414;-43
2021/11/18 05:41:13;;;;;;;3.45;1.50;;;;;;;;;;4897494;28;85316;-41
2021/11/18 05:43:42;;;;;;;1.35;1.25;;;;;;;;;;4906666;28;83844;-41
2021/11/18 05:46:10;;;;;;;1.15;1.10;;;;;;;;;;4905187;28;84171;-41
2021/11/18 05:48:37;;;;;;;1.85;1.25;;;;;;;;;;4905990;28;81699;-41
2021/11/18 05:51:05;;;;;;;1.38;1.25;;;;;;;;;;4905613;28;81973;-41
2021/11/18 05:53:33;;;;;;;1.50;1.40;;;;;;;;;;4903792;28;84850;-41
2021/11/18 05:56:02;;;;;;;2.35;1.77;;;;;;;;;;4904223;28;82814;-41
2021/11/18 05:58:30;;;;;;;1.40;1.33;;;;;;;;;;4904356;28;84830;-41
2021/11/18 06:01:00;;;;;;;1.33;1.20;;;;;;;;;;4903176;28;84873;-41
2021/11/18 06:03:27;;;;;;;1.83;1.35;;;;;;;;;;4904481;28;84433;-41
2021/11/18 06:05:54;;;;;;;3.42;2.15;;;;;;;;;;4906473;28;85170;-41
2021/11/18 06:08:22;;;;;;;4.13;2.00;;;;;;;;;;4904493;28;83604;-41
2021/11/18 06:10:50;;;;;;;2.03;1.85;;;;;;;;;;4903766;28;84871;-41
2021/11/18 06:13:17;;;;;;;2.45;1.95;;;;;;;;;;4904043;28;85394;-38
2021/11/18 06:15:44;;;;;;;1.73;1.60;;;;;;;;;;4887795;28;81809;-41
2021/11/18 06:18:12;;;;;;;2.88;2.25;;;;;;;;;;4893001;28;84522;-41
2021/11/18 06:20:39;;;;;;;2.33;1.30;;;;;;;;;;4906379;28;84534;-41
2021/11/18 06:23:07;;;;;;;2.00;1.35;;;;;;;;;;4893816;28;83999;-43
2021/11/18 06:25:35;;;;;;;6.43;1.98;;;;;;;;;;4894892;28;82360;-37
2021/11/18 06:28:02;;;;;;;2.38;1.92;;;;;;;;;;4900815;28;84461;-28
2021/11/18 06:30:38;;;;;;;5.22;1.90;;;;;;;;;;4894350;28;84634;-32
2021/11/18 06:33:07;;;;;;;3.20;2.30;;;;;;;;;;4888932;28;85042;-32
2021/11/18 06:35:35;;;;;;;2.97;2.10;;;;;;;;;;4893683;28;83266;-28
2021/11/18 06:38:19;;;;;;;4.28;2.20;;;;;;;;;;4889273;28;81910;-29
2021/11/18 06:40:49;;;;;;;4.75;2.38;;;;;;;;;;4888479;28;82446;-26
2021/11/18 06:43:16;;;;;;;4.30;2.10;;;;;;;;;;4888851;28;84037;-27
2021/11/18 06:45:49;;;;;;;3.53;1.45;;;;;;;;;;4895273;28;85061;-32
2021/11/18 06:48:20;;;;;;;3.28;1.45;;;;;;;;;;4892113;28;84389;-27
2021/11/18 06:50:56;;;;;;;2.33;1.90;;;;;;;;;;4900701;28;82126;-28
2021/11/18 06:53:22;;;;;;;6.00;1.85;;;;;;;;;;4897900;28;85189;-34
2021/11/18 06:55:50;;;;;;;3.35;1.55;;;;;;;;;;4898427;28;82180;-32
2021/11/18 06:58:16;;;;;;;13.27;9.80;;;;;;;;;;4890002;28;83420;-41
2021/11/18 07:00:43;;;;;;;21.58;13.82;;;;;;;;;;4884853;28;81787;-42
2021/11/18 07:03:11;;;;;;;21.52;12.00;;;;;;;;;;4888550;28;84001;-41
2021/11/18 07:05:38;;;;;;;15.18;7.43;;;;;;;;;;4913698;28;86254;-41
2021/11/18 07:08:06;;;;;;;5.57;4.75;;;;;;;;;;4895438;28;82755;-47
2021/11/18 07:10:33;;;;;;;6.70;4.00;;;;;;;;;;4895590;28;84070;-42
2021/11/18 07:13:05;;;;;;;5.50;3.50;;;;;;;;;;4896644;28;85206;-47
2021/11/18 07:15:32;;;;;;;5.25;3.25;;;;;;;;;;4893416;28;84456;-45
2021/11/18 07:18:03;;;;;;;6.70;3.00;;;;;;;;;;4896733;28;83577;-44
2021/11/18 07:20:30;;;;;;;6.15;3.03;;;;;;;;;;4899162;28;83048;-43
2021/11/18 07:23:04;;;;;;;2.38;2.17;;;;;;;;;;4886505;28;82580;-43
2021/11/18 07:25:35;;;;;;;3.65;2.08;;;;;;;;;;4893183;28;84804;-43
2021/11/18 07:28:02;;;;;;;2.88;2.10;;;;;;;;;;4885502;28;83610;-43
2021/11/18 07:30:28;;;;;;;4.28;2.30;;;;;;;;;;4884132;28;83110;-39
2021/11/18 07:32:55;;;;;;;3.15;2.47;;;;;;;;;;4885795;28;83921;-40
2021/11/18 07:35:26;;;;;;;2.97;2.67;;;;;;;;;;4882870;28;84251;-41
2021/11/18 07:37:55;;;;;;;4.32;2.70;;;;;;;;;;4883073;28;85061;-41
2021/11/18 07:40:28;;;;;;;13.73;3.75;;;;;;;;;;4889092;28;83910;-40
2021/11/18 07:43:00;;;;;;;6.85;3.17;;;;;;;;;;4887595;28;84529;-38
2021/11/18 07:45:54;;;;;;;4.13;1.83;;;;;;;;;;4906410;28;82185;-39
2021/11/18 07:48:46;;;;;;;9.85;2.65;;;;;;;;;;4891594;28;85378;-39
2021/11/18 07:51:19;;;;;;;4.43;2.70;;;;;;;;;;4885639;28;82513;-40
2021/11/18 07:53:46;;;;;;;2.45;2.03;;;;;;;;;;4884168;28;81917;-39
2021/11/18 07:56:14;;;;;;;2.47;2.08;;;;;;;;;;4885851;28;85097;-40
2021/11/18 07:58:40;;;;;;;6.10;3.35;;;;;;;;;;4888744;28;83001;-29
2021/11/18 08:01:07;;;;;;;6.18;2.40;;;;;;;;;;4880601;28;84871;-28
2021/11/18 08:03:35;;;;;;;5.68;3.55;;;;;;;;;;4881672;28;84318;-29
2021/11/18 08:06:22;;;;;;;5.20;2.70;;;;;;;;;;4881732;28;84932;-31
2021/11/18 08:08:56;;;;;;;5.50;2.40;;;;;;;;;;4883714;28;84361;-27
2021/11/18 08:11:41;;;;;;;2.72;1.90;;;;;;;;;;4883542;28;83701;-31
2021/11/18 08:14:08;;;;;;;4.13;2.30;;;;;;;;;;4883138;28;85002;-32
2021/11/18 08:16:35;;;;;;;2.95;2.30;;;;;;;;;;4883999;28;84109;-28
2021/11/18 08:19:04;;;;;;;5.00;2.25;;;;;;;;;;4885838;28;84019;-27
2021/11/18 08:21:31;;;;;;;2.85;2.13;;;;;;;;;;4901046;28;85200;-34
2021/11/18 08:23:58;;;;;;;3.40;3.10;;;;;;;;;;4883339;28;82795;-30
2021/11/18 08:26:30;;;;;;;2.28;1.77;;;;;;;;;;4882912;28;85665;-29
2021/11/18 08:28:59;;;;;;;7.95;4.68;;;;;;;;;;4884274;28;84969;-41
2021/11/18 08:31:26;;;;;;;6.78;2.38;;;;;;;;;;4887268;28;82381;-41
2021/11/18 08:34:14;;;;;;;3.45;2.63;;;;;;;;;;4901800;28;82309;-41
2021/11/18 08:36:41;;;;;;;3.25;2.55;;;;;;;;;;4886835;28;83945;-41
2021/11/18 08:39:10;;;;;;;3.92;2.78;;;;;;;;;;4887369;28;82610;-39
2021/11/18 08:41:37;;;;;;;3.17;2.22;;;;;;;;;;4896662;28;84783;-38
2021/11/18 08:44:04;;;;;;;5.60;3.05;;;;;;;;;;4884751;28;83316;-43
2021/11/18 08:46:31;;;;;;;3.42;2.53;;;;;;;;;;4887826;28;84343;-43
2021/11/18 08:49:01;;;;;;;4.13;2.85;;;;;;;;;;4887058;28;85709;-41
2021/11/18 08:51:34;;;;;;;6.07;2.88;;;;;;;;;;4885915;28;84099;-40
2021/11/18 08:54:04;;;;;;;5.80;3.10;;;;;;;;;;4894374;28;85063;-43
2021/11/18 08:56:32;;;;;;;8.95;3.03;;;;;;;;;;4881904;28;84540;-40
2021/11/18 08:59:00;;;;;;;5.47;2.80;;;;;;;;;;4890200;28;83781;-39
2021/11/18 09:01:38;;;;;;;3.83;2.22;;;;;;;;;;4885872;28;84875;-36
2021/11/18 09:04:08;;;;;;;3.38;2.20;;;;;;;;;;4896028;28;85354;-41
2021/11/18 09:06:35;;;;;;;4.60;1.85;;;;;;;;;;4891482;28;83741;-43
2021/11/18 09:09:03;;;;;;;3.78;2.05;;;;;;;;;;4885368;28;83760;-44
2021/11/18 09:11:32;;;;;;;4.45;2.22;;;;;;;;;;4888479;28;82434;-43
2021/11/18 09:14:00;;;;;;;3.78;3.03;;;;;;;;;;4893033;28;84132;-41
2021/11/18 09:16:29;;;;;;;4.35;2.00;;;;;;;;;;4885001;28;84865;-44
2021/11/18 09:19:05;;;;;;;7.15;1.90;;;;;;;;;;4888393;28;83255;-42
2021/11/18 09:21:33;;;;;;;2.28;1.80;;;;;;;;;;4886408;28;84639;-43
2021/11/18 09:24:05;;;;;;;1.65;1.50;;;;;;;;;;4892644;28;82674;-44
2021/11/18 09:26:34;;;;;;;3.75;2.38;;;;;;;;;;4889407;28;81655;-44
2021/11/18 09:29:03;;;;;;;1.88;1.60;;;;;;;;;;4890491;28;84865;-43
2021/11/18 09:31:49;;;;;;;1.92;1.80;;;;;;;;;;4886319;28;81194;-47
2021/11/18 09:34:17;;;;;;;2.63;1.58;;;;;;;;;;4885031;28;82747;-47
2021/11/18 09:36:44;;;;;;;1.83;1.17;;;;;;;;;;4885639;28;84937;-43
2021/11/18 09:39:11;;;;;;;2.13;1.50;;;;;;;;;;4897126;28;83055;-43
2021/11/18 09:41:47;;;;;;;11.10;2.40;;;;;;;;;;4883745;28;84940;-43
2021/11/18 09:44:23;;;;;;;1.20;1.05;;;;;;;;;;4883097;28;84591;-45
2021/11/18 09:47:08;;;;;;;2.58;1.70;;;;;;;;;;4894018;28;83741;-44
2021/11/18 09:49:39;;;;;;;1.98;1.83;;;;;;;;;;4894071;28;85389;-43
2021/11/18 09:52:08;;;;;;;1.50;1.40;;;;;;;;;;4885074;28;84032;-43
2021/11/18 09:54:38;;;;;;;1.77;1.27;;;;;;;;;;4889605;28;84681;-42
2021/11/18 09:57:24;;;;;;;2.13;1.35;;;;;;;;;;4888444;28;84747;-47
2021/11/18 10:00:04;;;;;;;1.77;1.48;;;;;;;;;;4890392;28;82016;-45
2021/11/18 10:02:40;;;;;;;1.60;1.30;;;;;;;;;;4887658;28;82754;-42
2021/11/18 10:05:11;;;;;;;1.02;0.98;;;;;;;;;;4884455;28;83398;-43
2021/11/18 10:07:42;;;;;;;1.25;1.15;;;;;;;;;;4885806;28;82987;-47
2021/11/18 10:10:08;;;;;;;2.15;1.50;;;;;;;;;;4887748;28;84861;-46
2021/11/18 10:12:54;;;;;;;3.33;1.85;;;;;;;;;;4886932;28;84236;-47
2021/11/18 10:15:23;;;;;;;1.40;0.93;;;;;;;;;;4897086;28;84895;-42
2021/11/18 10:17:53;;;;;;;4.15;1.05;;;;;;;;;;4892519;28;84913;-46
2021/11/18 10:20:23;;;;;;;1.45;1.10;;;;;;;;;;4896989;28;83914;-49
2021/11/18 10:22:55;;;;;;;1.80;1.63;;;;;;;;;;4887186;28;82264;-46
2021/11/18 10:25:26;;;;;;;1.20;1.10;;;;;;;;;;4887506;28;83605;-46
2021/11/18 10:27:55;;;;;;;2.22;1.27;;;;;;;;;;4887027;28;82654;-45
2021/11/18 10:30:41;;;;;;;3.13;1.27;;;;;;;;;;4895337;28;84830;-47
2021/11/18 10:33:16;;;;;;;3.53;1.17;;;;;;;;;;4890948;28;82481;-42
2021/11/18 10:35:49;;;;;;;2.65;1.40;;;;;;;;;;4887781;28;83170;-48
2021/11/18 10:38:24;;;;;;;2.92;1.83;;;;;;;;;;4887016;28;85055;-46
2021/11/18 10:40:53;;;;;;;1.17;1.08;;;;;;;;;;4885725;28;82268;-43
2021/11/18 10:43:20;;;;;;;1.17;1.08;;;;;;;;;;4886338;28;83589;-47
2021/11/18 10:45:49;;;;;;;1.25;1.00;;;;;;;;;;4885467;28;83953;-46
2021/11/18 10:48:19;;;;;;;2.72;0.93;;;;;;;;;;4898140;28;82427;-46
2021/11/18 10:50:48;;;;;;;1.30;1.20;;;;;;;;;;4884734;28;82768;-43
2021/11/18 10:53:21;;;;;;;1.85;1.05;;;;;;;;;;4885948;28;83001;-42
2021/11/18 10:55:50;;;;;;;1.20;1.10;;;;;;;;;;4887644;28;83518;-43
2021/11/18 10:58:23;;;;;;;1.35;1.05;;;;;;;;;;4886914;28;83781;-42
2021/11/18 11:00:55;;;;;;;3.08;1.23;;;;;;;;;;4885660;28;82674;-46
2021/11/18 11:03:25;;;;;;;1.52;1.10;;;;;;;;;;4884749;28;83457;-44
2021/11/18 11:06:11;;;;;;;3.47;1.20;;;;;;;;;;4901343;28;82575;-46
2021/11/18 11:08:38;;;;;;;2.25;1.45;;;;;;;;;;4902459;28;81844;-40
2021/11/18 11:11:36;;;;;;;1.10;1.10;;;;;;;;;;4901823;28;83395;-48
2021/11/18 11:14:21;;;;;;;2.60;0.90;;;;;;;;;;4902984;28;82789;-47
2021/11/18 11:16:48;;;;;;;1.75;1.15;;;;;;;;;;4899097;28;82413;-41
2021/11/18 11:19:26;;;;;;;1.88;1.30;;;;;;;;;;4896694;28;83235;-48
2021/11/18 11:21:57;;;;;;;1.00;0.90;;;;;;;;;;4887929;28;82733;-50
2021/11/18 11:24:41;;;;;;;1.83;1.42;;;;;;;;;;4884289;28;84262;-47
2021/11/18 11:27:13;;;;;;;3.33;1.20;;;;;;;;;;4887449;28;83848;-48
2021/11/18 11:29:53;;;;;;;1.95;1.02;;;;;;;;;;4886666;28;83324;-47
2021/11/18 11:32:26;;;;;;;1.55;1.10;;;;;;;;;;4895807;28;83310;-49
2021/11/18 11:35:05;;;;;;;1.88;1.10;;;;;;;;;;4889681;28;83530;-48
2021/11/18 11:37:35;;;;;;;9.82;6.50;;;;;;;;;;4899251;28;82486;-50
2021/11/18 11:40:01;;;;;;;3.33;2.38;;;;;;;;;;4905763;28;82509;-45
2021/11/18 11:42:43;;;;;;;3.53;2.88;;;;;;;;;;4901358;28;83116;-46
2021/11/18 11:45:19;;;;;;;2.30;2.00;;;;;;;;;;4902808;28;83510;-45
2021/11/18 11:47:48;;;;;;;2.35;1.85;;;;;;;;;;4902310;28;84589;-47
2021/11/18 11:50:30;;;;;;;2.22;2.00;;;;;;;;;;4884940;28;81899;-50
2021/11/18 11:53:01;;;;;;;1.35;1.25;;;;;;;;;;4883340;28;84956;-42
2021/11/18 11:55:28;;;;;;;3.85;3.10;;;;;;;;;;4884802;28;82984;-32
2021/11/18 11:57:54;;;;;;;1.55;1.45;;;;;;;;;;4888840;28;81738;-33
2021/11/18 12:00:48;;;;;;;2.33;1.70;;;;;;;;;;4883226;28;83501;-35
2021/11/18 12:03:18;;;;;;;1.70;1.30;;;;;;;;;;4886269;28;83703;-28
2021/11/18 12:05:55;;;;;;;2.13;1.40;;;;;;;;;;4883547;28;82429;-31
2021/11/18 12:08:24;;;;;;;1.83;1.65;;;;;;;;;;4882717;28;83540;-31
2021/11/18 12:10:55;;;;;;;4.03;2.88;;;;;;;;;;4896920;28;82591;-30
2021/11/18 12:13:22;;;;;;;2.38;2.17;;;;;;;;;;4898446;28;83164;-28
2021/11/18 12:15:53;;;;;;;2.08;1.75;;;;;;;;;;4902199;28;83679;-28
2021/11/18 12:18:28;;;;;;;105.25;60.55;;;;;;;;;;4900494;28;82545;-27
2021/11/18 12:20:56;;;;;;;114.60;74.32;;;;;;;;;;4896326;28;84486;-29
2021/11/18 12:23:43;;;;;;;82.18;56.10;;;;;;;;;;4899718;28;83138;-29
2021/11/18 12:26:15;;;;;;;73.28;48.33;;;;;;;;;;4900636;28;84215;-29
2021/11/18 12:28:56;;;;;;;66.40;45.03;;;;;;;;;;4897185;28;84391;-29
2021/11/18 12:31:26;;;;;;;59.53;40.33;;;;;;;;;;4899911;28;85125;-32
2021/11/18 12:33:55;;;;;;;53.35;35.85;;;;;;;;;;4900986;28;84398;-34
2021/11/18 12:36:25;;;;;;;48.88;35.75;;;;;;;;;;4900423;28;83541;-30
2021/11/18 12:38:55;;;;;;;45.83;34.33;;;;;;;;;;4898029;28;85127;-30
2021/11/18 12:41:44;;;;;;;50.30;32.03;;;;;;;;;;4890759;28;84451;-30
2021/11/18 12:44:30;;;;;;;43.63;29.58;;;;;;;;;;4889675;28;83680;-32
2021/11/18 12:46:57;;;;;;;45.03;31.40;;;;;;;;;;4885037;28;83772;-30
2021/11/18 12:49:42;;;;;;;37.83;26.77;;;;;;;;;;4896391;28;83501;-32
2021/11/18 12:52:15;;;;;;;40.83;29.13;;;;;;;;;;4892650;28;85113;-28
2021/11/18 12:54:44;;;;;;;35.83;24.70;;;;;;;;;;4894365;28;84455;-28
2021/11/18 12:57:31;;;;;;;33.15;24.95;;;;;;;;;;4891432;28;83235;-27
2021/11/18 13:00:08;;;;;;;29.95;22.02;;;;;;;;;;4899287;28;84104;-26
2021/11/18 13:02:41;;;;;;;31.67;19.63;;;;;;;;;;4899242;28;84520;-26
2021/11/18 13:05:08;;;;;;;30.65;21.67;;;;;;;;;;4895080;28;84642;-25
2021/11/18 13:07:36;;;;;;;23.88;16.88;;;;;;;;;;4899392;28;85034;-25
2021/11/18 13:10:06;;;;;;;25.45;17.25;;;;;;;;;;4897144;28;84521;-26
2021/11/18 13:12:33;;;;;;;24.23;16.25;;;;;;;;;;4896232;28;83555;-29
2021/11/18 13:15:05;;;;;;;24.20;17.33;;;;;;;;;;4890569;28;83927;-28
2021/11/18 13:17:35;;;;;;;23.50;16.40;;;;;;;;;;4897342;28;83471;-26
2021/11/18 13:20:21;;;;;;;23.55;16.13;;;;;;;;;;4897218;28;84117;-27
2021/11/18 13:22:50;;;;;;;20.38;14.68;;;;;;;;;;4895943;28;84490;-28
2021/11/18 13:25:20;;;;;;;22.30;13.98;;;;;;;;;;4894367;28;85102;-29
2021/11/18 13:27:54;;;;;;;16.65;12.68;;;;;;;;;;4896055;28;85031;-29
2021/11/18 13:30:28;;;;;;;18.67;12.27;;;;;;;;;;4897007;28;84480;-28
2021/11/18 13:32:57;;;;;;;16.90;13.38;;;;;;;;;;4890650;28;83232;-27
2021/11/18 13:35:33;;;;;;;16.73;11.20;;;;;;;;;;4899619;28;84094;-27
2021/11/18 13:38:09;;;;;;;16.83;10.63;;;;;;;;;;4897840;28;83549;-26
2021/11/18 13:40:36;;;;;;;20.33;11.50;;;;;;;;;;4900254;28;84128;-29
2021/11/18 13:43:09;;;;;;;20.52;11.70;;;;;;;;;;4895591;28;83372;-28
2021/11/18 13:45:54;;;;;;;17.20;12.63;;;;;;;;;;4897190;28;83510;-29
2021/11/18 13:48:20;;;;;;;14.50;9.10;;;;;;;;;;4896765;28;85291;-27
2021/11/18 13:50:50;;;;;;;11.88;8.23;;;;;;;;;;4894629;28;81884;-29
2021/11/18 13:53:24;;;;;;;12.35;7.78;;;;;;;;;;4901415;28;83667;-28
2021/11/18 13:56:02;;;;;;;11.20;6.30;;;;;;;;;;4901402;28;82856;-31
2021/11/18 13:58:31;;;;;;;11.93;8.00;;;;;;;;;;4893588;28;82485;-26
2021/11/18 14:01:20;;;;;;;14.18;8.18;;;;;;;;;;4900344;28;82605;-31
2021/11/18 14:03:49;;;;;;;10.05;7.53;;;;;;;;;;4901385;28;83533;-27
2021/11/18 14:06:18;;;;;;;12.68;6.13;;;;;;;;;;4901236;28;83946;-29
2021/11/18 14:08:46;;;;;;;10.80;7.63;;;;;;;;;;4893661;28;82558;-27
2021/11/18 14:11:17;;;;;;;9.40;6.80;;;;;;;;;;4895565;28;83115;-29
2021/11/18 14:14:19;;;;;;;17.15;7.47;;;;;;;;;;4897759;28;82884;-27
2021/11/18 14:16:46;;;;;;;14.43;6.90;;;;;;;;;;4914851;28;82276;-27
2021/11/18 14:19:32;;;;;;;7.93;5.47;;;;;;;;;;4902320;28;83335;-26
2021/11/18 14:22:07;;;;;;;9.68;6.30;;;;;;;;;;4897005;28;82758;-29
2021/11/18 14:24:33;;;;;;;7.97;5.63;;;;;;;;;;4896404;28;84242;-26
2021/11/18 14:27:05;;;;;;;10.32;6.50;;;;;;;;;;4900309;28;83942;-26
2021/11/18 14:29:52;;;;;;;10.13;5.82;;;;;;;;;;4902913;28;82378;-25
2021/11/18 14:32:23;;;;;;;7.85;5.85;;;;;;;;;;4896042;28;83499;-26
2021/11/18 14:34:50;;;;;;;7.88;5.45;;;;;;;;;;4902060;28;83472;-26
2021/11/18 14:37:17;;;;;;;7.68;5.10;;;;;;;;;;4899888;28;82377;-30
2021/11/18 14:39:52;;;;;;;7.60;4.35;;;;;;;;;;4900896;28;82408;-25
2021/11/18 14:42:21;;;;;;;6.38;4.63;;;;;;;;;;4901200;28;83624;-28
2021/11/18 14:44:56;;;;;;;7.28;4.60;;;;;;;;;;4901110;28;82446;-26
2021/11/18 14:47:28;;;;;;;8.07;4.97;;;;;;;;;;4897127;28;84848;-25
2021/11/18 14:50:03;;;;;;;5.13;4.25;;;;;;;;;;4901627;28;82665;-28
2021/11/18 14:52:33;;;;;;;5.53;3.83;;;;;;;;;;4901780;28;83411;-26
2021/11/18 14:55:18;;;;;;;6.80;4.50;;;;;;;;;;4899532;28;83558;-25
2021/11/18 14:57:53;;;;;;;6.93;3.85;;;;;;;;;;4898174;28;81773;-28
2021/11/18 15:00:26;;;;;;;6.47;3.80;;;;;;;;;;4901275;28;82499;-25
2021/11/18 15:02:53;;;;;;;5.63;4.03;;;;;;;;;;4901259;28;83651;-27